sensor_id;sensor_type;location;lat;lon;timestamp;P1;durP1;ratioP1;P2;durP2;ratioP2
38037;SDS011;23843;51.320;12.340;2023-09-19T00:00:22;0.60;;;0.60;;
38037;SDS011;23843;51.320;12.340;2023-09-19T00:02:53;0.60;;;0.60;;
38037;SDS011;23843;51.320;12.340;2023-09-19T00:05:19;0.55;;;0.55;;
38037;SDS011;23843;51.320;12.340;2023-09-19T00:07:44;0.65;;;0.50;;
38037;SDS011;23843;51.320;12.340;2023-09-19T00:10:09;0.40;;;0.40;;
38037;SDS011;23843;51.320;12.340;2023-09-19T00:12:35;0.50;;;0.50;;
38037;SDS011;23843;51.320;12.340;2023-09-19T00:15:00;0.30;;;0.30;;
38037;SDS011;23843;51.320;12.340;2023-09-19T00:17:26;0.30;;;0.30;;
38037;SDS011;23843;51.320;12.340;2023-09-19T00:19:53;0.30;;;0.30;;
38037;SDS011;23843;51.320;12.340;2023-09-19T00:22:18;0.25;;;0.25;;
38037;SDS011;23843;51.320;12.340;2023-09-19T00:24:44;0.32;;;0.32;;
38037;SDS011;23843;51.320;12.340;2023-09-19T00:27:09;0.30;;;0.30;;
38037;SDS011;23843;51.320;12.340;2023-09-19T00:29:35;0.40;;;0.40;;
38037;SDS011;23843;51.320;12.340;2023-09-19T00:32:00;0.63;;;0.50;;
38037;SDS011;23843;51.320;12.340;2023-09-19T00:34:26;0.60;;;0.30;;
38037;SDS011;23843;51.320;12.340;2023-09-19T00:36:52;0.40;;;0.40;;
38037;SDS011;23843;51.320;12.340;2023-09-19T00:39:18;0.80;;;0.80;;
38037;SDS011;23843;51.320;12.340;2023-09-19T00:41:43;0.32;;;0.32;;
38037;SDS011;23843;51.320;12.340;2023-09-19T00:44:09;0.45;;;0.45;;
38037;SDS011;23843;51.320;12.340;2023-09-19T00:46:34;0.30;;;0.30;;
38037;SDS011;23843;51.320;12.340;2023-09-19T00:49:00;1.08;;;0.60;;
38037;SDS011;23843;51.320;12.340;2023-09-19T00:51:26;0.50;;;0.50;;
38037;SDS011;23843;51.320;12.340;2023-09-19T00:53:53;0.80;;;0.45;;
38037;SDS011;23843;51.320;12.340;2023-09-19T00:56:19;0.90;;;0.60;;
38037;SDS011;23843;51.320;12.340;2023-09-19T00:58:45;2.05;;;0.70;;
38037;SDS011;23843;51.320;12.340;2023-09-19T01:01:10;0.60;;;0.60;;
38037;SDS011;23843;51.320;12.340;2023-09-19T01:03:36;0.57;;;0.40;;
38037;SDS011;23843;51.320;12.340;2023-09-19T01:06:02;0.50;;;0.50;;
38037;SDS011;23843;51.320;12.340;2023-09-19T01:08:27;0.80;;;0.50;;
38037;SDS011;23843;51.320;12.340;2023-09-19T01:10:55;0.40;;;0.40;;
38037;SDS011;23843;51.320;12.340;2023-09-19T01:13:28;0.30;;;0.30;;
38037;SDS011;23843;51.320;12.340;2023-09-19T01:16:03;0.40;;;0.40;;
38037;SDS011;23843;51.320;12.340;2023-09-19T01:18:35;0.88;;;0.50;;
38037;SDS011;23843;51.320;12.340;2023-09-19T01:21:10;0.50;;;0.50;;
38037;SDS011;23843;51.320;12.340;2023-09-19T01:26:44;0.73;;;0.70;;
38037;SDS011;23843;51.320;12.340;2023-09-19T01:29:33;1.10;;;0.70;;
38037;SDS011;23843;51.320;12.340;2023-09-19T01:32:05;0.63;;;0.63;;
38037;SDS011;23843;51.320;12.340;2023-09-19T01:34:45;0.50;;;0.50;;
38037;SDS011;23843;51.320;12.340;2023-09-19T01:37:11;0.50;;;0.50;;
38037;SDS011;23843;51.320;12.340;2023-09-19T01:39:36;0.90;;;0.80;;
38037;SDS011;23843;51.320;12.340;2023-09-19T01:42:03;0.60;;;0.60;;
38037;SDS011;23843;51.320;12.340;2023-09-19T01:44:40;0.80;;;0.60;;
38037;SDS011;23843;51.320;12.340;2023-09-19T01:47:19;0.40;;;0.40;;
38037;SDS011;23843;51.320;12.340;2023-09-19T01:49:50;0.50;;;0.50;;
38037;SDS011;23843;51.320;12.340;2023-09-19T01:52:26;0.32;;;0.30;;
38037;SDS011;23843;51.320;12.340;2023-09-19T01:54:55;0.30;;;0.30;;
38037;SDS011;23843;51.320;12.340;2023-09-19T01:57:28;0.50;;;0.50;;
38037;SDS011;23843;51.320;12.340;2023-09-19T01:59:59;0.40;;;0.40;;
38037;SDS011;23843;51.320;12.340;2023-09-19T02:02:28;0.30;;;0.30;;
38037;SDS011;23843;51.320;12.340;2023-09-19T02:04:54;0.35;;;0.35;;
38037;SDS011;23843;51.320;12.340;2023-09-19T02:07:20;0.28;;;0.28;;
38037;SDS011;23843;51.320;12.340;2023-09-19T02:09:45;0.20;;;0.20;;
38037;SDS011;23843;51.320;12.340;2023-09-19T02:12:11;0.65;;;0.65;;
38037;SDS011;23843;51.320;12.340;2023-09-19T02:14:36;0.50;;;0.50;;
38037;SDS011;23843;51.320;12.340;2023-09-19T02:17:02;0.82;;;0.52;;
38037;SDS011;23843;51.320;12.340;2023-09-19T02:19:29;0.40;;;0.40;;
38037;SDS011;23843;51.320;12.340;2023-09-19T02:21:54;0.90;;;0.90;;
38037;SDS011;23843;51.320;12.340;2023-09-19T02:24:20;0.30;;;0.30;;
38037;SDS011;23843;51.320;12.340;2023-09-19T02:26:45;0.30;;;0.30;;
38037;SDS011;23843;51.320;12.340;2023-09-19T02:29:11;0.40;;;0.40;;
38037;SDS011;23843;51.320;12.340;2023-09-19T02:31:36;0.30;;;0.30;;
38037;SDS011;23843;51.320;12.340;2023-09-19T02:34:02;0.20;;;0.20;;
38037;SDS011;23843;51.320;12.340;2023-09-19T02:36:29;0.20;;;0.20;;
38037;SDS011;23843;51.320;12.340;2023-09-19T02:38:54;0.20;;;0.20;;
38037;SDS011;23843;51.320;12.340;2023-09-19T02:41:20;0.30;;;0.30;;
38037;SDS011;23843;51.320;12.340;2023-09-19T02:43:45;0.40;;;0.40;;
38037;SDS011;23843;51.320;12.340;2023-09-19T02:46:11;0.20;;;0.20;;
38037;SDS011;23843;51.320;12.340;2023-09-19T02:48:36;0.52;;;0.25;;
38037;SDS011;23843;51.320;12.340;2023-09-19T02:51:02;0.40;;;0.30;;
38037;SDS011;23843;51.320;12.340;2023-09-19T02:53:29;0.13;;;0.13;;
38037;SDS011;23843;51.320;12.340;2023-09-19T02:55:54;0.20;;;0.20;;
38037;SDS011;23843;51.320;12.340;2023-09-19T02:58:20;0.10;;;0.10;;
38037;SDS011;23843;51.320;12.340;2023-09-19T03:00:45;0.20;;;0.20;;
38037;SDS011;23843;51.320;12.340;2023-09-19T03:03:11;0.20;;;0.20;;
38037;SDS011;23843;51.320;12.340;2023-09-19T03:05:36;0.20;;;0.20;;
38037;SDS011;23843;51.320;12.340;2023-09-19T03:08:02;0.30;;;0.30;;
38037;SDS011;23843;51.320;12.340;2023-09-19T03:10:29;0.55;;;0.40;;
38037;SDS011;23843;51.320;12.340;2023-09-19T03:12:54;0.10;;;0.10;;
38037;SDS011;23843;51.320;12.340;2023-09-19T03:15:20;0.32;;;0.32;;
38037;SDS011;23843;51.320;12.340;2023-09-19T03:17:46;0.20;;;0.20;;
38037;SDS011;23843;51.320;12.340;2023-09-19T03:20:12;0.20;;;0.20;;
38037;SDS011;23843;51.320;12.340;2023-09-19T03:22:38;0.10;;;0.10;;
38037;SDS011;23843;51.320;12.340;2023-09-19T03:25:04;0.20;;;0.20;;
38037;SDS011;23843;51.320;12.340;2023-09-19T03:27:31;0.20;;;0.20;;
38037;SDS011;23843;51.320;12.340;2023-09-19T03:29:57;0.80;;;0.80;;
38037;SDS011;23843;51.320;12.340;2023-09-19T03:32:22;0.20;;;0.20;;
38037;SDS011;23843;51.320;12.340;2023-09-19T03:34:48;0.20;;;0.20;;
38037;SDS011;23843;51.320;12.340;2023-09-19T03:37:13;0.17;;;0.17;;
38037;SDS011;23843;51.320;12.340;2023-09-19T03:39:39;0.20;;;0.20;;
38037;SDS011;23843;51.320;12.340;2023-09-19T03:42:04;0.10;;;0.10;;
38037;SDS011;23843;51.320;12.340;2023-09-19T03:44:31;0.30;;;0.30;;
38037;SDS011;23843;51.320;12.340;2023-09-19T03:46:57;0.17;;;0.17;;
38037;SDS011;23843;51.320;12.340;2023-09-19T03:49:22;0.20;;;0.20;;
38037;SDS011;23843;51.320;12.340;2023-09-19T03:51:48;0.20;;;0.20;;
38037;SDS011;23843;51.320;12.340;2023-09-19T03:54:13;0.28;;;0.28;;
38037;SDS011;23843;51.320;12.340;2023-09-19T03:56:39;0.20;;;0.20;;
38037;SDS011;23843;51.320;12.340;2023-09-19T03:59:04;0.22;;;0.20;;
38037;SDS011;23843;51.320;12.340;2023-09-19T04:01:31;0.20;;;0.20;;
38037;SDS011;23843;51.320;12.340;2023-09-19T04:03:56;0.20;;;0.20;;
38037;SDS011;23843;51.320;12.340;2023-09-19T04:06:22;0.20;;;0.20;;
38037;SDS011;23843;51.320;12.340;2023-09-19T04:08:48;0.10;;;0.10;;
38037;SDS011;23843;51.320;12.340;2023-09-19T04:11:14;0.73;;;0.73;;
38037;SDS011;23843;51.320;12.340;2023-09-19T04:13:39;0.20;;;0.20;;
38037;SDS011;23843;51.320;12.340;2023-09-19T04:16:05;0.20;;;0.20;;
38037;SDS011;23843;51.320;12.340;2023-09-19T04:18:32;0.20;;;0.20;;
38037;SDS011;23843;51.320;12.340;2023-09-19T04:20:57;0.20;;;0.20;;
38037;SDS011;23843;51.320;12.340;2023-09-19T04:23:23;0.40;;;0.20;;
38037;SDS011;23843;51.320;12.340;2023-09-19T04:25:48;0.28;;;0.28;;
38037;SDS011;23843;51.320;12.340;2023-09-19T04:28:14;0.20;;;0.20;;
38037;SDS011;23843;51.320;12.340;2023-09-19T04:30:39;0.30;;;0.30;;
38037;SDS011;23843;51.320;12.340;2023-09-19T04:33:05;0.30;;;0.20;;
38037;SDS011;23843;51.320;12.340;2023-09-19T04:35:32;0.40;;;0.40;;
38037;SDS011;23843;51.320;12.340;2023-09-19T04:37:57;0.30;;;0.30;;
38037;SDS011;23843;51.320;12.340;2023-09-19T04:40:23;0.38;;;0.38;;
38037;SDS011;23843;51.320;12.340;2023-09-19T04:42:52;0.10;;;0.10;;
38037;SDS011;23843;51.320;12.340;2023-09-19T04:45:18;0.20;;;0.20;;
38037;SDS011;23843;51.320;12.340;2023-09-19T04:47:44;0.20;;;0.20;;
38037;SDS011;23843;51.320;12.340;2023-09-19T04:50:09;0.10;;;0.10;;
38037;SDS011;23843;51.320;12.340;2023-09-19T04:52:36;0.10;;;0.10;;
38037;SDS011;23843;51.320;12.340;2023-09-19T04:55:03;0.20;;;0.20;;
38037;SDS011;23843;51.320;12.340;2023-09-19T04:57:29;0.30;;;0.30;;
38037;SDS011;23843;51.320;12.340;2023-09-19T04:59:55;0.30;;;0.30;;
38037;SDS011;23843;51.320;12.340;2023-09-19T05:02:20;0.40;;;0.40;;
38037;SDS011;23843;51.320;12.340;2023-09-19T05:04:45;0.63;;;0.63;;
38037;SDS011;23843;51.320;12.340;2023-09-19T05:07:11;0.20;;;0.20;;
38037;SDS011;23843;51.320;12.340;2023-09-19T05:09:38;0.23;;;0.23;;
38037;SDS011;23843;51.320;12.340;2023-09-19T05:12:03;0.10;;;0.10;;
38037;SDS011;23843;51.320;12.340;2023-09-19T05:14:29;0.20;;;0.20;;
38037;SDS011;23843;51.320;12.340;2023-09-19T05:16:55;0.30;;;0.30;;
38037;SDS011;23843;51.320;12.340;2023-09-19T05:19:20;0.25;;;0.25;;
38037;SDS011;23843;51.320;12.340;2023-09-19T05:21:45;0.35;;;0.30;;
38037;SDS011;23843;51.320;12.340;2023-09-19T05:24:11;0.82;;;0.40;;
38037;SDS011;23843;51.320;12.340;2023-09-19T05:26:38;0.30;;;0.30;;
38037;SDS011;23843;51.320;12.340;2023-09-19T05:29:03;0.30;;;0.30;;
38037;SDS011;23843;51.320;12.340;2023-09-19T05:31:29;0.20;;;0.20;;
38037;SDS011;23843;51.320;12.340;2023-09-19T05:33:54;0.17;;;0.17;;
38037;SDS011;23843;51.320;12.340;2023-09-19T05:36:19;0.17;;;0.17;;
38037;SDS011;23843;51.320;12.340;2023-09-19T05:38:45;0.20;;;0.20;;
38037;SDS011;23843;51.320;12.340;2023-09-19T05:41:10;0.10;;;0.10;;
38037;SDS011;23843;51.320;12.340;2023-09-19T05:43:37;0.30;;;0.30;;
38037;SDS011;23843;51.320;12.340;2023-09-19T05:46:03;0.30;;;0.30;;
38037;SDS011;23843;51.320;12.340;2023-09-19T05:48:28;0.32;;;0.30;;
38037;SDS011;23843;51.320;12.340;2023-09-19T05:50:54;0.20;;;0.20;;
38037;SDS011;23843;51.320;12.340;2023-09-19T05:53:19;0.30;;;0.30;;
38037;SDS011;23843;51.320;12.340;2023-09-19T05:55:45;0.20;;;0.20;;
38037;SDS011;23843;51.320;12.340;2023-09-19T05:58:10;0.32;;;0.32;;
38037;SDS011;23843;51.320;12.340;2023-09-19T06:00:37;0.30;;;0.30;;
38037;SDS011;23843;51.320;12.340;2023-09-19T06:03:03;0.38;;;0.30;;
38037;SDS011;23843;51.320;12.340;2023-09-19T06:05:29;0.57;;;0.57;;
38037;SDS011;23843;51.320;12.340;2023-09-19T06:07:57;0.77;;;0.40;;
38037;SDS011;23843;51.320;12.340;2023-09-19T06:10:23;0.47;;;0.47;;
38037;SDS011;23843;51.320;12.340;2023-09-19T06:12:49;0.40;;;0.40;;
38037;SDS011;23843;51.320;12.340;2023-09-19T06:15:15;0.50;;;0.50;;
38037;SDS011;23843;51.320;12.340;2023-09-19T06:17:44;0.65;;;0.60;;
38037;SDS011;23843;51.320;12.340;2023-09-19T06:20:11;0.40;;;0.40;;
38037;SDS011;23843;51.320;12.340;2023-09-19T06:22:37;0.35;;;0.35;;
38037;SDS011;23843;51.320;12.340;2023-09-19T06:25:02;0.40;;;0.40;;
38037;SDS011;23843;51.320;12.340;2023-09-19T06:27:29;0.55;;;0.50;;
38037;SDS011;23843;51.320;12.340;2023-09-19T06:29:54;2.47;;;0.40;;
38037;SDS011;23843;51.320;12.340;2023-09-19T06:32:26;0.85;;;0.85;;
38037;SDS011;23843;51.320;12.340;2023-09-19T06:34:53;0.45;;;0.45;;
38037;SDS011;23843;51.320;12.340;2023-09-19T06:37:18;0.50;;;0.50;;
38037;SDS011;23843;51.320;12.340;2023-09-19T06:39:44;0.88;;;0.80;;
38037;SDS011;23843;51.320;12.340;2023-09-19T06:42:09;0.60;;;0.60;;
38037;SDS011;23843;51.320;12.340;2023-09-19T06:44:35;0.40;;;0.40;;
38037;SDS011;23843;51.320;12.340;2023-09-19T06:47:00;0.47;;;0.47;;
38037;SDS011;23843;51.320;12.340;2023-09-19T06:49:26;0.65;;;0.65;;
38037;SDS011;23843;51.320;12.340;2023-09-19T06:51:54;0.50;;;0.50;;
38037;SDS011;23843;51.320;12.340;2023-09-19T06:54:20;0.70;;;0.70;;
38037;SDS011;23843;51.320;12.340;2023-09-19T06:56:46;0.57;;;0.57;;
38037;SDS011;23843;51.320;12.340;2023-09-19T06:59:11;0.80;;;0.80;;
38037;SDS011;23843;51.320;12.340;2023-09-19T07:01:36;0.70;;;0.70;;
38037;SDS011;23843;51.320;12.340;2023-09-19T07:04:02;1.00;;;1.00;;
38037;SDS011;23843;51.320;12.340;2023-09-19T07:06:28;0.60;;;0.60;;
38037;SDS011;23843;51.320;12.340;2023-09-19T07:08:54;0.60;;;0.60;;
38037;SDS011;23843;51.320;12.340;2023-09-19T07:11:20;1.40;;;0.65;;
38037;SDS011;23843;51.320;12.340;2023-09-19T07:13:45;0.60;;;0.60;;
38037;SDS011;23843;51.320;12.340;2023-09-19T07:16:11;0.77;;;0.60;;
38037;SDS011;23843;51.320;12.340;2023-09-19T07:18:36;0.40;;;0.40;;
38037;SDS011;23843;51.320;12.340;2023-09-19T07:21:02;0.60;;;0.60;;
38037;SDS011;23843;51.320;12.340;2023-09-19T07:23:27;0.88;;;0.70;;
38037;SDS011;23843;51.320;12.340;2023-09-19T07:25:57;0.85;;;0.60;;
38037;SDS011;23843;51.320;12.340;2023-09-19T07:28:23;0.70;;;0.50;;
38037;SDS011;23843;51.320;12.340;2023-09-19T07:30:48;0.65;;;0.50;;
38037;SDS011;23843;51.320;12.340;2023-09-19T07:33:13;0.70;;;0.70;;
38037;SDS011;23843;51.320;12.340;2023-09-19T07:35:39;1.10;;;0.88;;
38037;SDS011;23843;51.320;12.340;2023-09-19T07:38:04;0.93;;;0.60;;
38037;SDS011;23843;51.320;12.340;2023-09-19T07:40:30;1.10;;;0.80;;
38037;SDS011;23843;51.320;12.340;2023-09-19T07:42:57;1.10;;;1.00;;
38037;SDS011;23843;51.320;12.340;2023-09-19T07:45:23;1.02;;;0.65;;
38037;SDS011;23843;51.320;12.340;2023-09-19T07:47:48;1.00;;;0.80;;
38037;SDS011;23843;51.320;12.340;2023-09-19T07:50:15;0.88;;;0.88;;
38037;SDS011;23843;51.320;12.340;2023-09-19T07:52:41;0.57;;;0.52;;
38037;SDS011;23843;51.320;12.340;2023-09-19T07:55:07;0.60;;;0.50;;
38037;SDS011;23843;51.320;12.340;2023-09-19T07:57:32;0.85;;;0.60;;
38037;SDS011;23843;51.320;12.340;2023-09-19T07:59:59;1.10;;;0.80;;
38037;SDS011;23843;51.320;12.340;2023-09-19T08:02:24;0.80;;;0.73;;
38037;SDS011;23843;51.320;12.340;2023-09-19T08:04:50;0.88;;;0.70;;
38037;SDS011;23843;51.320;12.340;2023-09-19T08:07:15;1.20;;;0.40;;
38037;SDS011;23843;51.320;12.340;2023-09-19T08:09:41;0.73;;;0.40;;
38037;SDS011;23843;51.320;12.340;2023-09-19T08:12:06;0.75;;;0.52;;
38037;SDS011;23843;51.320;12.340;2023-09-19T08:14:32;0.43;;;0.40;;
38037;SDS011;23843;51.320;12.340;2023-09-19T08:16:59;0.50;;;0.40;;
38037;SDS011;23843;51.320;12.340;2023-09-19T08:19:25;0.57;;;0.50;;
38037;SDS011;23843;51.320;12.340;2023-09-19T08:21:50;2.03;;;0.90;;
38037;SDS011;23843;51.320;12.340;2023-09-19T08:24:16;0.52;;;0.52;;
38037;SDS011;23843;51.320;12.340;2023-09-19T08:26:41;0.50;;;0.40;;
38037;SDS011;23843;51.320;12.340;2023-09-19T08:29:06;0.75;;;0.60;;
38037;SDS011;23843;51.320;12.340;2023-09-19T08:31:32;0.90;;;0.90;;
38037;SDS011;23843;51.320;12.340;2023-09-19T08:33:59;0.47;;;0.40;;
38037;SDS011;23843;51.320;12.340;2023-09-19T08:36:24;0.95;;;0.50;;
38037;SDS011;23843;51.320;12.340;2023-09-19T08:38:50;0.40;;;0.40;;
38037;SDS011;23843;51.320;12.340;2023-09-19T08:41:16;0.68;;;0.57;;
38037;SDS011;23843;51.320;12.340;2023-09-19T08:43:42;0.75;;;0.45;;
38037;SDS011;23843;51.320;12.340;2023-09-19T08:46:09;0.50;;;0.50;;
38037;SDS011;23843;51.320;12.340;2023-09-19T08:48:37;0.60;;;0.30;;
38037;SDS011;23843;51.320;12.340;2023-09-19T08:51:06;0.90;;;0.52;;
38037;SDS011;23843;51.320;12.340;2023-09-19T08:53:38;0.68;;;0.50;;
38037;SDS011;23843;51.320;12.340;2023-09-19T08:56:07;0.95;;;0.70;;
38037;SDS011;23843;51.320;12.340;2023-09-19T08:58:34;0.73;;;0.65;;
38037;SDS011;23843;51.320;12.340;2023-09-19T09:01:08;0.50;;;0.45;;
38037;SDS011;23843;51.320;12.340;2023-09-19T09:03:35;1.00;;;0.60;;
38037;SDS011;23843;51.320;12.340;2023-09-19T09:06:02;0.52;;;0.30;;
38037;SDS011;23843;51.320;12.340;2023-09-19T09:08:29;0.57;;;0.57;;
38037;SDS011;23843;51.320;12.340;2023-09-19T09:10:56;0.50;;;0.50;;
38037;SDS011;23843;51.320;12.340;2023-09-19T09:13:22;0.80;;;0.52;;
38037;SDS011;23843;51.320;12.340;2023-09-19T09:15:47;0.90;;;0.50;;
38037;SDS011;23843;51.320;12.340;2023-09-19T09:18:14;0.50;;;0.50;;
38037;SDS011;23843;51.320;12.340;2023-09-19T09:20:40;0.93;;;0.70;;
38037;SDS011;23843;51.320;12.340;2023-09-19T09:23:05;0.57;;;0.57;;
38037;SDS011;23843;51.320;12.340;2023-09-19T09:28:13;0.85;;;0.60;;
38037;SDS011;23843;51.320;12.340;2023-09-19T09:30:45;0.93;;;0.80;;
38037;SDS011;23843;51.320;12.340;2023-09-19T09:33:10;0.70;;;0.70;;
38037;SDS011;23843;51.320;12.340;2023-09-19T09:35:37;1.17;;;0.75;;
38037;SDS011;23843;51.320;12.340;2023-09-19T09:38:03;1.02;;;0.68;;
38037;SDS011;23843;51.320;12.340;2023-09-19T09:40:29;0.85;;;0.60;;
38037;SDS011;23843;51.320;12.340;2023-09-19T09:43:16;0.70;;;0.60;;
38037;SDS011;23843;51.320;12.340;2023-09-19T09:45:52;0.98;;;0.80;;
38037;SDS011;23843;51.320;12.340;2023-09-19T09:48:32;0.95;;;0.50;;
38037;SDS011;23843;51.320;12.340;2023-09-19T09:50:57;0.75;;;0.50;;
38037;SDS011;23843;51.320;12.340;2023-09-19T09:53:23;0.50;;;0.50;;
38037;SDS011;23843;51.320;12.340;2023-09-19T09:55:59;0.63;;;0.60;;
38037;SDS011;23843;51.320;12.340;2023-09-19T09:58:27;0.90;;;0.57;;
38037;SDS011;23843;51.320;12.340;2023-09-19T10:00:52;0.65;;;0.60;;
38037;SDS011;23843;51.320;12.340;2023-09-19T10:03:19;1.67;;;0.98;;
38037;SDS011;23843;51.320;12.340;2023-09-19T10:05:45;0.70;;;0.70;;
38037;SDS011;23843;51.320;12.340;2023-09-19T10:08:11;0.60;;;0.60;;
38037;SDS011;23843;51.320;12.340;2023-09-19T10:10:37;0.90;;;0.63;;
38037;SDS011;23843;51.320;12.340;2023-09-19T10:13:03;0.88;;;0.60;;
38037;SDS011;23843;51.320;12.340;2023-09-19T10:15:32;1.67;;;1.20;;
38037;SDS011;23843;51.320;12.340;2023-09-19T10:17:59;0.73;;;0.60;;
38037;SDS011;23843;51.320;12.340;2023-09-19T10:20:26;1.45;;;0.80;;
38037;SDS011;23843;51.320;12.340;2023-09-19T10:22:53;0.80;;;0.80;;
38037;SDS011;23843;51.320;12.340;2023-09-19T10:25:19;0.82;;;0.68;;
38037;SDS011;23843;51.320;12.340;2023-09-19T10:27:45;0.57;;;0.57;;
38037;SDS011;23843;51.320;12.340;2023-09-19T10:30:11;0.95;;;0.60;;
38037;SDS011;23843;51.320;12.340;2023-09-19T10:32:40;0.50;;;0.50;;
38037;SDS011;23843;51.320;12.340;2023-09-19T10:35:06;0.50;;;0.50;;
38037;SDS011;23843;51.320;12.340;2023-09-19T10:37:33;0.77;;;0.45;;
38037;SDS011;23843;51.320;12.340;2023-09-19T10:40:00;1.05;;;0.52;;
38037;SDS011;23843;51.320;12.340;2023-09-19T10:42:26;0.50;;;0.50;;
38037;SDS011;23843;51.320;12.340;2023-09-19T10:44:52;0.40;;;0.30;;
38037;SDS011;23843;51.320;12.340;2023-09-19T10:47:18;0.40;;;0.40;;
38037;SDS011;23843;51.320;12.340;2023-09-19T10:49:45;1.10;;;0.68;;
38037;SDS011;23843;51.320;12.340;2023-09-19T10:52:11;2.80;;;1.42;;
38037;SDS011;23843;51.320;12.340;2023-09-19T10:54:39;1.73;;;0.82;;
38037;SDS011;23843;51.320;12.340;2023-09-19T10:57:11;1.08;;;0.55;;
38037;SDS011;23843;51.320;12.340;2023-09-19T10:59:37;1.15;;;0.77;;
38037;SDS011;23843;51.320;12.340;2023-09-19T11:02:26;0.90;;;0.68;;
38037;SDS011;23843;51.320;12.340;2023-09-19T11:04:54;0.73;;;0.60;;
38037;SDS011;23843;51.320;12.340;2023-09-19T11:07:43;0.88;;;0.70;;
38037;SDS011;23843;51.320;12.340;2023-09-19T11:13:23;0.63;;;0.47;;
38037;SDS011;23843;51.320;12.340;2023-09-19T11:18:52;0.68;;;0.50;;
38037;SDS011;23843;51.320;12.340;2023-09-19T11:21:41;0.40;;;0.30;;
38037;SDS011;23843;51.320;12.340;2023-09-19T11:24:32;0.55;;;0.40;;
38037;SDS011;23843;51.320;12.340;2023-09-19T11:27:10;0.57;;;0.50;;
38037;SDS011;23843;51.320;12.340;2023-09-19T11:29:37;0.40;;;0.40;;
38037;SDS011;23843;51.320;12.340;2023-09-19T11:32:02;1.13;;;0.73;;
38037;SDS011;23843;51.320;12.340;2023-09-19T11:40:27;1.73;;;1.00;;
38037;SDS011;23843;51.320;12.340;2023-09-19T11:42:52;2.33;;;1.10;;
38037;SDS011;23843;51.320;12.340;2023-09-19T11:48:21;2.30;;;1.63;;
38037;SDS011;23843;51.320;12.340;2023-09-19T11:50:48;1.38;;;0.95;;
38037;SDS011;23843;51.320;12.340;2023-09-19T11:53:14;1.52;;;0.90;;
38037;SDS011;23843;51.320;12.340;2023-09-19T11:55:41;1.45;;;0.70;;
38037;SDS011;23843;51.320;12.340;2023-09-19T11:58:07;1.92;;;0.75;;
38037;SDS011;23843;51.320;12.340;2023-09-19T12:00:34;0.90;;;0.70;;
38037;SDS011;23843;51.320;12.340;2023-09-19T12:03:09;0.65;;;0.57;;
38037;SDS011;23843;51.320;12.340;2023-09-19T12:05:35;0.57;;;0.50;;
38037;SDS011;23843;51.320;12.340;2023-09-19T12:08:01;0.77;;;0.60;;
38037;SDS011;23843;51.320;12.340;2023-09-19T12:10:26;0.73;;;0.50;;
38037;SDS011;23843;51.320;12.340;2023-09-19T12:12:53;0.60;;;0.40;;
38037;SDS011;23843;51.320;12.340;2023-09-19T12:15:22;1.92;;;0.75;;
38037;SDS011;23843;51.320;12.340;2023-09-19T12:17:49;0.82;;;0.65;;
38037;SDS011;23843;51.320;12.340;2023-09-19T12:20:15;0.73;;;0.50;;
38037;SDS011;23843;51.320;12.340;2023-09-19T12:22:40;0.47;;;0.47;;
38037;SDS011;23843;51.320;12.340;2023-09-19T12:25:06;0.60;;;0.50;;
38037;SDS011;23843;51.320;12.340;2023-09-19T12:27:40;0.60;;;0.50;;
38037;SDS011;23843;51.320;12.340;2023-09-19T12:30:08;1.58;;;0.60;;
38037;SDS011;23843;51.320;12.340;2023-09-19T12:32:35;0.80;;;0.80;;
38037;SDS011;23843;51.320;12.340;2023-09-19T12:35:01;0.70;;;0.65;;
38037;SDS011;23843;51.320;12.340;2023-09-19T12:37:27;0.65;;;0.60;;
38037;SDS011;23843;51.320;12.340;2023-09-19T12:39:52;0.88;;;0.70;;
38037;SDS011;23843;51.320;12.340;2023-09-19T12:42:19;1.25;;;1.15;;
38037;SDS011;23843;51.320;12.340;2023-09-19T12:44:45;0.68;;;0.68;;
38037;SDS011;23843;51.320;12.340;2023-09-19T12:47:14;1.55;;;0.60;;
38037;SDS011;23843;51.320;12.340;2023-09-19T12:52:34;0.73;;;0.57;;
38037;SDS011;23843;51.320;12.340;2023-09-19T12:55:00;0.85;;;0.80;;
38037;SDS011;23843;51.320;12.340;2023-09-19T12:57:26;0.90;;;0.70;;
38037;SDS011;23843;51.320;12.340;2023-09-19T12:59:52;0.80;;;0.60;;
38037;SDS011;23843;51.320;12.340;2023-09-19T13:02:19;0.60;;;0.50;;
38037;SDS011;23843;51.320;12.340;2023-09-19T13:04:51;1.20;;;0.90;;
38037;SDS011;23843;51.320;12.340;2023-09-19T13:10:07;1.23;;;0.60;;
38037;SDS011;23843;51.320;12.340;2023-09-19T13:12:36;0.80;;;0.65;;
38037;SDS011;23843;51.320;12.340;2023-09-19T13:15:09;0.70;;;0.60;;
38037;SDS011;23843;51.320;12.340;2023-09-19T13:17:43;1.30;;;0.80;;
38037;SDS011;23843;51.320;12.340;2023-09-19T13:20:20;0.82;;;0.63;;
38037;SDS011;23843;51.320;12.340;2023-09-19T13:22:46;0.88;;;0.82;;
38037;SDS011;23843;51.320;12.340;2023-09-19T13:25:13;0.50;;;0.50;;
38037;SDS011;23843;51.320;12.340;2023-09-19T13:27:40;0.60;;;0.60;;
38037;SDS011;23843;51.320;12.340;2023-09-19T13:30:07;1.08;;;0.93;;
38037;SDS011;23843;51.320;12.340;2023-09-19T13:32:33;1.10;;;0.88;;
38037;SDS011;23843;51.320;12.340;2023-09-19T13:35:00;0.70;;;0.70;;
38037;SDS011;23843;51.320;12.340;2023-09-19T13:37:26;1.67;;;0.82;;
38037;SDS011;23843;51.320;12.340;2023-09-19T13:39:51;0.70;;;0.60;;
38037;SDS011;23843;51.320;12.340;2023-09-19T13:42:17;1.10;;;0.75;;
38037;SDS011;23843;51.320;12.340;2023-09-19T13:44:42;0.60;;;0.60;;
38037;SDS011;23843;51.320;12.340;2023-09-19T13:47:08;0.90;;;0.85;;
38037;SDS011;23843;51.320;12.340;2023-09-19T13:49:33;0.70;;;0.70;;
38037;SDS011;23843;51.320;12.340;2023-09-19T13:52:00;1.00;;;0.60;;
38037;SDS011;23843;51.320;12.340;2023-09-19T13:54:25;0.60;;;0.60;;
38037;SDS011;23843;51.320;12.340;2023-09-19T13:56:51;1.00;;;0.90;;
38037;SDS011;23843;51.320;12.340;2023-09-19T13:59:16;1.00;;;0.80;;
38037;SDS011;23843;51.320;12.340;2023-09-19T14:01:42;1.08;;;0.85;;
38037;SDS011;23843;51.320;12.340;2023-09-19T14:04:07;1.13;;;0.88;;
38037;SDS011;23843;51.320;12.340;2023-09-19T14:06:33;2.45;;;1.02;;
38037;SDS011;23843;51.320;12.340;2023-09-19T14:09:00;1.10;;;1.00;;
38037;SDS011;23843;51.320;12.340;2023-09-19T14:11:25;2.30;;;1.48;;
38037;SDS011;23843;51.320;12.340;2023-09-19T14:13:51;1.20;;;1.10;;
38037;SDS011;23843;51.320;12.340;2023-09-19T14:16:16;0.63;;;0.63;;
38037;SDS011;23843;51.320;12.340;2023-09-19T14:18:42;1.10;;;1.00;;
38037;SDS011;23843;51.320;12.340;2023-09-19T14:21:07;1.00;;;0.90;;
38037;SDS011;23843;51.320;12.340;2023-09-19T14:23:36;0.90;;;0.90;;
38037;SDS011;23843;51.320;12.340;2023-09-19T14:26:03;1.00;;;0.90;;
38037;SDS011;23843;51.320;12.340;2023-09-19T14:28:28;1.00;;;0.90;;
38037;SDS011;23843;51.320;12.340;2023-09-19T14:30:54;0.80;;;0.80;;
38037;SDS011;23843;51.320;12.340;2023-09-19T14:33:19;0.80;;;0.80;;
38037;SDS011;23843;51.320;12.340;2023-09-19T14:35:45;0.73;;;0.73;;
38037;SDS011;23843;51.320;12.340;2023-09-19T14:38:10;0.60;;;0.60;;
38037;SDS011;23843;51.320;12.340;2023-09-19T14:40:36;0.80;;;0.70;;
38037;SDS011;23843;51.320;12.340;2023-09-19T14:43:03;0.85;;;0.80;;
38037;SDS011;23843;51.320;12.340;2023-09-19T14:45:28;0.82;;;0.70;;
38037;SDS011;23843;51.320;12.340;2023-09-19T14:47:55;1.20;;;0.90;;
38037;SDS011;23843;51.320;12.340;2023-09-19T14:50:20;1.33;;;0.80;;
38037;SDS011;23843;51.320;12.340;2023-09-19T14:52:46;0.68;;;0.68;;
38037;SDS011;23843;51.320;12.340;2023-09-19T14:55:11;0.65;;;0.65;;
38037;SDS011;23843;51.320;12.340;2023-09-19T14:57:37;0.95;;;0.80;;